Terminal Aerodrome Forecast
Issued by NWS

Home | Current Version | Previous Version | Text Only | Print | Product List | Glossary On
Versions: 1 2 3 4 5 6 7 8 9 10 11 12 13 14 15 16 17 18 19
000
FTUS46 KOTX 060523
TAFSFF
TAF
KSFF 060523Z 0606/0706 33003KT P6SM FEW060 BKN200
     FM061000 03006KT P6SM BKN150
     FM061800 06011KT P6SM SCT090
     FM070200 05004KT P6SM SKC=

USA.gov is the U.S. government's official web portal to all federal, state and local government web resources and services.